Aérodrome :
LOGIN :

S'inscrire | Disclaimer

   EN    FR    IT 

 










Légende :    VFR   VFR Marginal   IFR   IFR Intensif   IFR Très Intensif
Visi : 
Plafond : 
>= 8 km
>= 3000ft
5 à 8 km
1000 à 3000 ft
1500m à 5 km
500 à 1000 ft
800 à 1500m
200 à 500 ft
< 800m
< 200 ft
Symboles :   Orages  Brouillard  Fortes neiges  Fortes précipitations  Vent > 20 kt
SIGMETs :   Divers  Orages  Givrage  Turbulence  Onde Orograph.  Cendres Volcan.







- Altitude de l'aérodrome : 1411 ft
- Code IATA : ZHI


LSZG - Grenchen

DERNIER METAR :
  • 280020Z AUTO 22002KT 8000 -RA BKN050 SCT070 03/02 Q1012

METARs EXPIRÉS :
  • 272350Z AUTO 15001KT 8000 -RA BKN034 OVC044 03/02 Q1012
  • 272320Z AUTO 10002KT 9999 -RA BKN009 SCT027 03/02 Q1013 REDZ
  • 272250Z AUTO 16002KT 7000 -RA OVC050 03/02 Q1012
  • 272220Z AUTO 07001KT 7000 -RA BKN010 BKN017 03/02 Q1013
  • 272150Z AUTO 12002KT 9999 -RA SCT035 BKN042 03/02 Q1013

Prévision TAF périmée.
ATIS : +41 32 396 96 33
Pas de NOTAMs connus pour ce terrain.



MET'MAP, la Météo Aéronautique d'un coup d'oeil ! - Copyright ORBIFLY Décembre 2007 - Disclaimer

ORBIFLY MET'MAP TEAM :

Programmation & Développement : Alexandra Zaïnal
Conception & Développement : Baudouin d'Aumeries
Co-Programmation & Développement : Marc-Olivier Méhu
Soutien technique & logistique : Manuel Goepfert

Contact : metmap@orbifly.com




SOURCES & CREDITS :

   NOAA